Latest  Newer  Older  Last 2 hours animation  Current image  Latest image 
Rain/snow radar  Infrared sat images 
Real-time lightning map

All time is UTC (add 2 hours to UTC in wintertime, 3 hours to UTC in DST for Latvia local time)

2021/11/30 17:20 EVRA 301720Z 26006KT 220V300 9999 BKN042 M02/M04 Q0986 NOSIG
2021/11/30 17:20 EVLA 301720Z AUTO VRB01KT 9999 -SN FEW013/// BKN017/// OVC043/// M00/M02 Q0989
2021/11/30 17:20 EVVA 301720Z AUTO 35013KT 9999 BKN038 OVC047 01/M06 Q0988
2021/11/30 17:20 EYKA 301720Z VRB01KT 9999 SCT014 OVC019 M04/M05 Q0989
2021/11/30 17:20 EYPA 301720Z 10001KT CAVOK M02/M04 Q0990
2021/11/30 17:20 EYSA 301720Z 25006KT CAVOK M05/M07 Q0988 NOSIG
2021/11/30 17:20 EYVI 301720Z 23007KT 9999 SCT013 M03/M05 Q0988 NOSIG
2021/11/30 16:20 EEKA 301620Z 33022KT 9999 BKN019 M03/M06 Q0986
2021/11/30 17:20 EEKE 301720Z 33010G20KT 9999 BKN030 M02/M06 Q0986

2021/11/30 17:20 EETN 301720Z 33012KT 9999 DRSN OVC012 M07/M09 Q0983 NOSIG
2021/11/30 17:20 EETU 301720Z AUTO 29011KT 260V330 9999 OVC009/// M06/M08 Q0981
   RIGA AIRPORT     EVRA               56 55N  023 58E   10   X     T          6 LV
   LIEPAJA INTL     EVLA        26406  56 31N  021 06E    4   X                8 LV
   VENTPILS         EVVA               57 21N  021 33E    6   X                8 LV
   KAUNAS           EYKA               54 54N  023 55E   77   X     T          6 LT
   PALANGA INTL     EYPA               55 55N  021 03E   10   X                6 LT
   SIAULIAI INTL    EYSA               55 54N  023 24E  135   X     T          6 LT
   VILNIUS INTL     EYVI        26730  54 38N  025 17E  197   X     T          6 LT
   KARDLA           EEKA        26116  58 59N  022 50E    4   X                8 EE
   KURESSAARE       EEKE               58 14N  022 31E    4   X                8 EE
   PARNU            EEPU               58 25N  024 28E   14   X                8 EE
   TALLINN          EETN        26038  59 24N  024 49E   40   X     T          8 EE
   TARTU            EETU               58 19N  026 41E   67   X                8 EE

cloud coverage image from sat24.com and METAR data from weather.noaa.gov